Elmwood, Tennessee
Current Conditions -  °F | °C
As of 6:15 PM on Sunday 23 Nov 2014 (Local Time) from KSRB Reporting Station
Broken Clouds Broken Clouds  
Wind Chill: 57°   Ceiling: 8000
Heat Index: 57°   Visibility: 10mi
Dew Point: 55°   Wind: 12mph
Humidity: 94%   Direction: 170°S
Pressure: 29.47"   Gusts: NA
Location:  36.23°N, 85.88°W
Report Text: KSRB 240015Z AUTO 17010KT 10SM FEW024 SCT038 BKN080 14/13 A2947 RMK
Loading
Personal Weather Stations






























Interactive Weather Map New forecast layout! Learn more

10-Day Weather Forecast

Advertisements
Track Severe Weather on mobile